Time,TemperatureF,DewpointF,PressureIn,WindDirection,WindDirectionDegrees,WindSpeedMPH,WindSpeedGustMPH,Humidity,HourlyPrecipIn,Conditions,Clouds,dailyrainin,SoftwareType,DateUTC
2013-06-17 00:00:00,68.5,62.1,29.85,SSW,199,0.0,2.0,80,0.00,,,0.00,meteobridge,2013-06-17 04:00:00,
2013-06-17 00:01:00,68.5,62.1,29.85,SSW,199,0.0,2.0,80,0.00,,,0.00,meteobridge,2013-06-17 04:01:00,
2013-06-17 00:02:00,68.5,62.1,29.85,SSW,199,0.0,2.0,80,0.00,,,0.00,meteobridge,2013-06-17 04:02:00,
2013-06-17 00:03:00,68.5,62.4,29.85,WSW,245,0.9,0.9,81,0.00,,,0.00,meteobridge,2013-06-17 04:03:00,
2013-06-17 00:06:00,68.4,62.2,29.85,SW,227,0.0,2.0,81,0.00,,,0.00,meteobridge,2013-06-17 04:06:00,
2013-06-17 00:11:00,68.2,62.1,29.84,SSW,209,0.0,0.9,81,0.00,,,0.00,meteobridge,2013-06-17 04:11:00,
2013-06-17 00:16:00,68.0,62.2,29.85,SW,222,0.0,0.9,82,0.00,,,0.00,meteobridge,2013-06-17 04:16:00,
2013-06-17 00:22:00,67.8,62.1,29.85,SSW,207,0.0,2.0,82,0.00,,,0.00,meteobridge,2013-06-17 04:22:00,
2013-06-17 00:27:00,67.6,61.9,29.85,SSW,207,0.0,0.0,82,0.00,,,0.00,meteobridge,2013-06-17 04:27:00,
2013-06-17 00:33:00,67.6,62.2,29.84,SSW,207,0.0,0.0,83,0.00,,,0.00,meteobridge,2013-06-17 04:33:00,
2013-06-17 00:38:00,67.6,62.2,29.84,SSW,207,0.0,0.0,83,0.00,,,0.00,meteobridge,2013-06-17 04:38:00,
2013-06-17 00:44:00,67.6,62.2,29.85,SSW,207,0.0,0.0,83,0.00,,,0.00,meteobridge,2013-06-17 04:44:00,
2013-06-17 00:49:00,67.5,62.1,29.85,SSW,207,0.0,0.0,83,0.00,,,0.00,meteobridge,2013-06-17 04:49:00,
2013-06-17 00:55:00,67.5,62.1,29.85,SSW,211,0.0,0.9,83,0.00,,,0.00,meteobridge,2013-06-17 04:55:00,
2013-06-17 01:00:00,67.3,61.9,29.85,SSW,211,0.0,0.0,83,0.00,,,0.00,meteobridge,2013-06-17 05:00:00,
2013-06-17 01:06:00,67.1,62.1,29.85,SSW,209,0.0,0.0,84,0.00,,,0.00,meteobridge,2013-06-17 05:06:00,
2013-06-17 01:11:00,66.9,61.9,29.85,SSW,209,0.9,0.9,84,0.00,,,0.00,meteobridge,2013-06-17 05:11:00,
2013-06-17 01:16:00,66.7,61.7,29.85,SSW,209,0.0,0.9,84,0.00,,,0.00,meteobridge,2013-06-17 05:16:00,
2013-06-17 01:22:00,66.6,61.9,29.85,SSW,209,0.0,0.0,85,0.00,,,0.00,meteobridge,2013-06-17 05:22:00,
2013-06-17 01:27:00,66.4,61.7,29.85,SSW,209,0.0,0.0,85,0.00,,,0.00,meteobridge,2013-06-17 05:27:00,
2013-06-17 01:32:00,66.0,61.7,29.85,SSW,209,0.0,0.0,86,0.00,,,0.00,meteobridge,2013-06-17 05:32:00,
2013-06-17 01:37:00,65.7,61.7,29.85,SSW,209,0.0,0.0,87,0.00,,,0.00,meteobridge,2013-06-17 05:37:00,
2013-06-17 01:43:00,65.5,61.5,29.85,SSW,209,0.0,0.0,87,0.00,,,0.00,meteobridge,2013-06-17 05:43:00,
2013-06-17 01:48:00,64.9,61.3,29.85,SSW,209,0.0,0.0,88,0.00,,,0.00,meteobridge,2013-06-17 05:48:00,
2013-06-17 01:53:00,64.9,61.3,29.85,SSW,209,0.0,0.0,88,0.00,,,0.00,meteobridge,2013-06-17 05:53:00,
2013-06-17 01:59:00,64.8,61.5,29.85,SSW,209,0.0,0.9,89,0.00,,,0.00,meteobridge,2013-06-17 05:59:00,
2013-06-17 02:04:00,64.6,61.3,29.85,SSW,209,0.0,0.0,89,0.00,,,0.00,meteobridge,2013-06-17 06:04:00,
2013-06-17 02:10:00,64.6,61.3,29.85,SSW,209,0.0,0.0,89,0.00,,,0.00,meteobridge,2013-06-17 06:10:00,
2013-06-17 02:15:00,64.4,61.3,29.85,SSW,209,0.0,0.9,90,0.00,,,0.00,meteobridge,2013-06-17 06:15:00,
2013-06-17 02:20:00,64.2,61.2,29.85,SSW,209,0.0,0.0,90,0.00,,,0.00,meteobridge,2013-06-17 06:20:00,
2013-06-17 02:26:00,64.0,61.0,29.85,SSW,209,0.0,0.0,90,0.00,,,0.00,meteobridge,2013-06-17 06:26:00,
2013-06-17 02:31:00,63.9,60.8,29.85,SSW,209,0.0,0.0,90,0.00,,,0.00,meteobridge,2013-06-17 06:31:00,
2013-06-17 02:36:00,63.7,61.0,29.85,SSW,209,0.0,0.0,91,0.00,,,0.00,meteobridge,2013-06-17 06:36:00,
2013-06-17 02:42:00,63.5,60.8,29.85,SSW,209,0.0,0.0,91,0.00,,,0.00,meteobridge,2013-06-17 06:42:00,
2013-06-17 02:47:00,63.3,60.6,29.86,SSW,209,0.0,0.0,91,0.00,,,0.00,meteobridge,2013-06-17 06:47:00,
2013-06-17 02:52:00,63.1,60.8,29.86,SSW,209,0.0,0.0,92,0.00,,,0.00,meteobridge,2013-06-17 06:52:00,
2013-06-17 02:58:00,63.0,60.6,29.86,SSW,209,0.0,0.0,92,0.00,,,0.00,meteobridge,2013-06-17 06:58:00,
2013-06-17 03:04:00,63.0,60.6,29.86,SSW,209,0.0,0.0,92,0.00,,,0.00,meteobridge,2013-06-17 07:04:00,
2013-06-17 03:09:00,62.8,60.4,29.86,SSW,209,0.0,0.0,92,0.00,,,0.00,meteobridge,2013-06-17 07:09:00,
2013-06-17 03:14:00,62.4,60.4,29.86,SSW,209,0.0,0.0,93,0.00,,,0.00,meteobridge,2013-06-17 07:14:00,
2013-06-17 03:20:00,62.4,60.4,29.86,SSW,209,0.0,0.0,93,0.00,,,0.00,meteobridge,2013-06-17 07:20:00,
2013-06-17 03:25:00,62.2,60.3,29.86,SSW,209,0.0,0.0,93,0.00,,,0.00,meteobridge,2013-06-17 07:25:00,
2013-06-17 03:30:00,62.2,60.3,29.86,SSW,209,0.0,0.0,93,0.00,,,0.00,meteobridge,2013-06-17 07:30:00,
2013-06-17 03:35:00,62.1,60.1,29.86,SSW,209,0.0,0.0,93,0.00,,,0.00,meteobridge,2013-06-17 07:35:00,
2013-06-17 03:41:00,62.1,60.3,29.86,SSW,209,0.0,0.0,94,0.00,,,0.00,meteobridge,2013-06-17 07:41:00,
2013-06-17 03:46:00,61.9,60.1,29.86,SSW,209,0.0,0.0,94,0.00,,,0.00,meteobridge,2013-06-17 07:46:00,
2013-06-17 03:51:00,61.9,60.1,29.86,SSW,209,0.0,0.0,94,0.00,,,0.00,meteobridge,2013-06-17 07:51:00,
2013-06-17 03:56:00,61.5,59.7,29.85,SSW,209,0.0,0.0,94,0.00,,,0.00,meteobridge,2013-06-17 07:56:00,
2013-06-17 04:02:00,61.5,59.7,29.85,SSW,209,0.0,0.0,94,0.00,,,0.00,meteobridge,2013-06-17 08:02:00,
2013-06-17 04:08:00,61.3,59.5,29.85,SSW,209,0.0,0.0,94,0.00,,,0.00,meteobridge,2013-06-17 08:08:00,
2013-06-17 04:13:00,61.3,59.5,29.85,SSW,209,0.0,0.0,94,0.00,,,0.00,meteobridge,2013-06-17 08:13:00,
2013-06-17 04:19:00,61.2,59.4,29.85,SSW,209,0.0,0.0,94,0.00,,,0.00,meteobridge,2013-06-17 08:19:00,
2013-06-17 04:24:00,61.0,59.2,29.85,SSW,209,0.0,0.0,94,0.00,,,0.00,meteobridge,2013-06-17 08:24:00,
2013-06-17 04:29:00,61.0,59.5,29.85,SSW,209,0.0,0.0,95,0.00,,,0.00,meteobridge,2013-06-17 08:29:00,
2013-06-17 04:34:00,61.0,59.5,29.85,SSW,209,0.0,0.0,95,0.00,,,0.00,meteobridge,2013-06-17 08:34:00,
2013-06-17 04:40:00,61.0,59.5,29.86,SSW,209,0.0,0.0,95,0.00,,,0.00,meteobridge,2013-06-17 08:40:00,
2013-06-17 04:45:00,61.2,60.1,29.86,SSW,209,0.0,0.0,96,0.00,,,0.00,meteobridge,2013-06-17 08:45:00,
2013-06-17 04:50:00,61.0,59.5,29.87,SSW,209,0.0,0.0,95,0.00,,,0.00,meteobridge,2013-06-17 08:50:00,
2013-06-17 04:55:00,61.2,60.1,29.87,SSW,209,0.0,0.0,96,0.00,,,0.00,meteobridge,2013-06-17 08:55:00,
2013-06-17 05:01:00,61.3,60.3,29.87,SSW,209,0.0,0.0,96,0.00,,,0.00,meteobridge,2013-06-17 09:01:00,
2013-06-17 05:06:00,61.3,60.3,29.87,SSW,209,0.0,0.0,96,0.00,,,0.00,meteobridge,2013-06-17 09:06:00,
2013-06-17 05:12:00,61.3,59.9,29.87,SSW,209,0.0,0.0,95,0.00,,,0.00,meteobridge,2013-06-17 09:12:00,
2013-06-17 05:17:00,61.3,59.9,29.88,SSW,209,0.0,0.0,95,0.00,,,0.00,meteobridge,2013-06-17 09:17:00,
2013-06-17 05:22:00,61.3,59.5,29.87,SSW,209,0.0,0.0,94,0.00,,,0.00,meteobridge,2013-06-17 09:22:00,
2013-06-17 05:28:00,61.2,59.7,29.87,SSW,209,0.0,0.0,95,0.00,,,0.00,meteobridge,2013-06-17 09:28:00,
2013-06-17 05:33:00,61.2,59.7,29.88,SSW,209,0.0,0.0,95,0.00,,,0.00,meteobridge,2013-06-17 09:33:00,
2013-06-17 05:38:00,61.2,59.7,29.88,SSW,209,0.0,0.0,95,0.00,,,0.00,meteobridge,2013-06-17 09:38:00,
2013-06-17 05:44:00,61.2,59.7,29.88,SSW,209,0.0,0.9,95,0.00,,,0.00,meteobridge,2013-06-17 09:44:00,
2013-06-17 05:49:00,61.2,60.1,29.88,SSW,209,0.0,0.9,96,0.00,,,0.00,meteobridge,2013-06-17 09:49:00,
2013-06-17 05:54:00,61.3,60.3,29.88,SSW,209,0.0,0.9,96,0.00,,,0.00,meteobridge,2013-06-17 09:54:00,
2013-06-17 06:00:00,61.5,60.4,29.88,SSW,209,0.0,2.0,96,0.00,,,0.00,meteobridge,2013-06-17 10:00:00,
2013-06-17 06:05:00,61.9,60.8,29.88,SSW,210,0.0,0.9,96,0.00,,,0.00,meteobridge,2013-06-17 10:05:00,
2013-06-17 06:11:00,62.1,61.0,29.88,SSW,210,0.9,0.9,96,0.00,,,0.00,meteobridge,2013-06-17 10:11:00,
2013-06-17 06:16:00,62.2,61.2,29.89,SSW,210,0.0,0.0,96,0.00,,,0.00,meteobridge,2013-06-17 10:16:00,
2013-06-17 06:21:00,62.4,61.3,29.89,SSW,210,0.0,0.9,96,0.00,,,0.00,meteobridge,2013-06-17 10:21:00,
2013-06-17 06:27:00,62.6,61.5,29.89,SSW,198,0.0,2.0,96,0.00,,,0.00,meteobridge,2013-06-17 10:27:00,
2013-06-17 06:32:00,62.8,61.7,29.89,SSW,198,0.0,0.9,96,0.00,,,0.00,meteobridge,2013-06-17 10:32:00,
2013-06-17 06:37:00,63.0,61.9,29.89,SSW,194,2.0,2.9,96,0.00,,,0.00,meteobridge,2013-06-17 10:37:00,
2013-06-17 06:42:00,63.1,62.1,29.89,SSW,194,0.9,0.9,96,0.00,,,0.00,meteobridge,2013-06-17 10:42:00,
2013-06-17 06:48:00,63.5,62.4,29.89,SSW,194,0.0,0.9,96,0.00,,,0.00,meteobridge,2013-06-17 10:48:00,
2013-06-17 06:53:00,63.9,62.8,29.90,SSW,193,0.0,2.0,96,0.00,,,0.00,meteobridge,2013-06-17 10:53:00,
2013-06-17 06:58:00,64.0,63.0,29.89,SSW,193,0.0,0.0,96,0.00,,,0.00,meteobridge,2013-06-17 10:58:00,
2013-06-17 07:03:00,64.2,63.1,29.89,SSW,193,0.9,2.0,96,0.00,,,0.00,meteobridge,2013-06-17 11:03:00,
2013-06-17 07:08:00,64.8,63.3,29.89,SSW,193,0.0,0.0,95,0.00,,,0.00,meteobridge,2013-06-17 11:08:00,
2013-06-17 07:14:00,64.9,63.5,29.89,SSW,193,0.0,0.0,95,0.00,,,0.00,meteobridge,2013-06-17 11:14:00,
2013-06-17 07:19:00,65.1,63.7,29.89,West,259,0.0,0.9,95,0.00,,,0.00,meteobridge,2013-06-17 11:19:00,
2013-06-17 07:25:00,65.7,64.2,29.89,NW,304,0.0,0.9,95,0.00,,,0.00,meteobridge,2013-06-17 11:25:00,
2013-06-17 07:30:00,66.0,64.2,29.90,NW,304,0.9,2.0,94,0.00,,,0.00,meteobridge,2013-06-17 11:30:00,
2013-06-17 07:35:00,66.4,64.2,29.90,NW,311,0.0,0.9,93,0.00,,,0.00,meteobridge,2013-06-17 11:35:00,
2013-06-17 07:40:00,66.7,64.4,29.90,SSW,192,2.0,2.9,92,0.00,,,0.00,meteobridge,2013-06-17 11:40:00,
2013-06-17 07:46:00,67.1,64.4,29.90,WSW,242,0.0,2.0,91,0.00,,,0.00,meteobridge,2013-06-17 11:46:00,
2013-06-17 07:51:00,67.5,64.4,29.90,South,188,0.0,2.0,90,0.00,,,0.00,meteobridge,2013-06-17 11:51:00,
2013-06-17 07:56:00,67.6,64.2,29.90,SSW,194,0.0,2.0,89,0.00,,,0.00,meteobridge,2013-06-17 11:56:00,
2013-06-17 08:01:00,68.0,64.4,29.90,South,187,0.9,2.0,88,0.00,,,0.00,meteobridge,2013-06-17 12:01:00,
2013-06-17 08:06:00,68.4,64.6,29.90,SSW,205,0.0,0.9,88,0.00,,,0.00,meteobridge,2013-06-17 12:06:00,
2013-06-17 08:12:00,68.5,64.8,29.90,SW,234,0.9,2.0,88,0.00,,,0.00,meteobridge,2013-06-17 12:12:00,
2013-06-17 08:17:00,68.9,64.9,29.90,SSW,200,0.0,2.9,87,0.00,,,0.00,meteobridge,2013-06-17 12:17:00,
2013-06-17 08:22:00,69.3,64.6,29.90,SSW,195,2.0,2.9,85,0.00,,,0.00,meteobridge,2013-06-17 12:22:00,
2013-06-17 08:28:00,69.6,64.9,29.90,WNW,284,0.0,2.0,85,0.00,,,0.00,meteobridge,2013-06-17 12:28:00,
2013-06-17 08:33:00,70.0,64.9,29.90,SSW,205,0.9,2.0,84,0.00,,,0.00,meteobridge,2013-06-17 12:33:00,
2013-06-17 08:38:00,70.2,65.1,29.90,SSW,198,0.9,2.0,84,0.00,,,0.00,meteobridge,2013-06-17 12:38:00,
2013-06-17 08:44:00,70.5,65.5,29.90,SSW,195,0.0,0.9,84,0.00,,,0.00,meteobridge,2013-06-17 12:44:00,
2013-06-17 08:50:00,70.9,65.8,29.90,SSW,195,0.0,0.9,84,0.00,,,0.00,meteobridge,2013-06-17 12:50:00,
2013-06-17 08:55:00,71.1,64.9,29.89,WSW,257,0.9,2.0,81,0.00,,,0.00,meteobridge,2013-06-17 12:55:00,
2013-06-17 09:00:00,71.4,65.7,29.89,West,279,0.0,0.0,82,0.00,,,0.00,meteobridge,2013-06-17 13:00:00,
2013-06-17 09:06:00,71.8,65.3,29.89,SSW,197,0.9,2.9,80,0.00,,,0.00,meteobridge,2013-06-17 13:06:00,
2013-06-17 09:11:00,72.1,64.9,29.90,NW,309,0.0,2.0,78,0.00,,,0.00,meteobridge,2013-06-17 13:11:00,
2013-06-17 09:17:00,72.7,65.8,29.89,NW,309,0.0,0.0,79,0.00,,,0.00,meteobridge,2013-06-17 13:17:00,
2013-06-17 09:22:00,73.0,65.5,29.89,NW,308,0.9,0.9,77,0.00,,,0.00,meteobridge,2013-06-17 13:22:00,
2013-06-17 09:28:00,73.2,64.4,29.89,NW,311,0.9,0.9,74,0.00,,,0.00,meteobridge,2013-06-17 13:28:00,
2013-06-17 09:33:00,73.6,65.1,29.89,NW,317,0.0,2.0,75,0.00,,,0.00,meteobridge,2013-06-17 13:33:00,
2013-06-17 09:38:00,73.9,64.8,29.89,WSW,250,0.0,0.9,73,0.00,,,0.00,meteobridge,2013-06-17 13:38:00,
2013-06-17 09:43:00,74.5,65.3,29.89,SSW,192,0.0,2.0,73,0.00,,,0.00,meteobridge,2013-06-17 13:43:00,
2013-06-17 09:49:00,75.0,64.6,29.89,WNW,293,0.9,2.9,70,0.00,,,0.00,meteobridge,2013-06-17 13:49:00,
2013-06-17 09:54:00,75.6,64.8,29.88,WSW,250,0.9,0.9,69,0.00,,,0.00,meteobridge,2013-06-17 13:54:00,
2013-06-17 09:59:00,75.9,64.6,29.88,SSW,207,2.0,4.0,68,0.00,,,0.00,meteobridge,2013-06-17 13:59:00,
2013-06-17 10:04:00,76.3,64.6,29.88,SSW,207,0.0,2.9,67,0.00,,,0.00,meteobridge,2013-06-17 14:04:00,
2013-06-17 10:10:00,76.5,64.2,29.88,SSW,210,2.0,2.9,66,0.00,,,0.00,meteobridge,2013-06-17 14:10:00,
2013-06-17 10:15:00,76.6,64.4,29.88,NW,323,0.9,2.9,66,0.00,,,0.00,meteobridge,2013-06-17 14:15:00,
2013-06-17 10:20:00,76.6,64.4,29.88,SSW,192,2.0,2.9,66,0.00,,,0.00,meteobridge,2013-06-17 14:20:00,
2013-06-17 10:26:00,76.6,64.4,29.88,NW,325,0.0,0.9,66,0.00,,,0.00,meteobridge,2013-06-17 14:26:00,
2013-06-17 10:31:00,76.6,65.3,29.88,WNW,295,0.9,2.0,68,0.00,,,0.00,meteobridge,2013-06-17 14:31:00,
2013-06-17 10:36:00,76.8,64.2,29.88,South,187,0.9,2.9,65,0.00,,,0.00,meteobridge,2013-06-17 14:36:00,
2013-06-17 10:41:00,76.8,64.2,29.88,WNW,293,0.9,4.0,65,0.00,,,0.00,meteobridge,2013-06-17 14:41:00,
2013-06-17 10:46:00,76.6,63.5,29.88,South,189,2.0,4.9,64,0.00,,,0.00,meteobridge,2013-06-17 14:46:00,
2013-06-17 10:51:00,76.8,64.2,29.88,SSW,197,4.0,4.0,65,0.00,,,0.00,meteobridge,2013-06-17 14:51:00,
2013-06-17 10:57:00,76.8,64.6,29.88,NW,325,0.9,2.9,66,0.00,,,0.00,meteobridge,2013-06-17 14:57:00,
2013-06-17 11:02:00,77.2,64.0,29.88,South,173,2.9,4.9,64,0.00,,,0.00,meteobridge,2013-06-17 15:02:00,
2013-06-17 11:08:00,77.4,63.9,29.87,SW,221,0.9,2.0,63,0.00,,,0.00,meteobridge,2013-06-17 15:08:00,
2013-06-17 11:13:00,77.5,63.0,29.87,South,179,0.0,2.9,61,0.00,,,0.00,meteobridge,2013-06-17 15:13:00,
2013-06-17 11:18:00,77.5,63.5,29.87,NW,313,2.0,2.9,62,0.00,,,0.00,meteobridge,2013-06-17 15:18:00,
2013-06-17 11:24:00,77.7,63.7,29.87,SSW,194,0.9,2.0,62,0.00,,,0.00,meteobridge,2013-06-17 15:24:00,
2013-06-17 11:29:00,78.3,63.3,29.87,NW,313,0.9,4.9,60,0.00,,,0.00,meteobridge,2013-06-17 15:29:00,
2013-06-17 11:34:00,78.4,63.9,29.87,South,188,0.0,4.9,61,0.00,,,0.00,meteobridge,2013-06-17 15:34:00,
2013-06-17 11:39:00,78.4,61.5,29.87,West,273,0.9,6.9,56,0.00,,,0.00,meteobridge,2013-06-17 15:39:00,
2013-06-17 11:45:00,78.4,63.0,29.87,South,190,0.9,4.9,59,0.00,,,0.00,meteobridge,2013-06-17 15:45:00,
2013-06-17 11:50:00,78.6,62.6,29.87,WNW,303,4.0,4.9,58,0.00,,,0.00,meteobridge,2013-06-17 15:50:00,
2013-06-17 11:56:00,78.6,63.1,29.87,WSW,239,0.9,2.9,59,0.00,,,0.00,meteobridge,2013-06-17 15:56:00,
2013-06-17 12:01:00,79.0,63.5,29.87,West,279,0.0,2.0,59,0.00,,,0.00,meteobridge,2013-06-17 16:01:00,
2013-06-17 12:06:00,79.0,62.4,29.87,WNW,287,2.0,4.0,57,0.00,,,0.00,meteobridge,2013-06-17 16:06:00,
2013-06-17 12:11:00,79.3,62.8,29.88,SSW,198,2.0,4.9,57,0.00,,,0.00,meteobridge,2013-06-17 16:11:00,
2013-06-17 12:17:00,79.5,63.9,29.88,South,171,0.9,2.9,59,0.00,,,0.00,meteobridge,2013-06-17 16:17:00,
2013-06-17 12:22:00,80.1,63.5,29.87,SSW,202,2.9,4.0,57,0.00,,,0.00,meteobridge,2013-06-17 16:22:00,
2013-06-17 12:27:00,80.1,63.9,29.87,NW,315,4.0,4.0,58,0.00,,,0.00,meteobridge,2013-06-17 16:27:00,
2013-06-17 12:32:00,80.4,63.3,29.87,NW,312,0.9,4.0,56,0.00,,,0.00,meteobridge,2013-06-17 16:32:00,
2013-06-17 12:38:00,81.1,64.9,29.87,WNW,291,0.9,4.0,58,0.00,,,0.00,meteobridge,2013-06-17 16:38:00,
2013-06-17 12:43:00,82.0,63.7,29.87,SW,231,0.9,6.0,54,0.00,,,0.00,meteobridge,2013-06-17 16:43:00,
2013-06-17 12:48:00,82.8,64.4,29.87,NW,319,0.0,2.9,54,0.00,,,0.00,meteobridge,2013-06-17 16:48:00,
2013-06-17 12:53:00,83.5,62.2,29.87,NW,311,0.9,4.9,49,0.00,,,0.00,meteobridge,2013-06-17 16:53:00,
2013-06-17 12:58:00,83.1,62.1,29.87,South,187,4.0,6.9,49,0.00,,,0.00,meteobridge,2013-06-17 16:58:00,
2013-06-17 13:04:00,82.8,62.8,29.86,WNW,287,0.0,4.0,51,0.00,,,0.00,meteobridge,2013-06-17 17:04:00,
2013-06-17 13:09:00,83.3,63.9,29.86,NW,310,0.0,2.9,52,0.00,,,0.00,meteobridge,2013-06-17 17:09:00,
2013-06-17 13:14:00,83.8,64.4,29.86,WNW,296,0.0,2.0,52,0.00,,,0.00,meteobridge,2013-06-17 17:14:00,
2013-06-17 13:20:00,84.0,63.3,29.86,SSW,205,4.0,4.0,50,0.00,,,0.00,meteobridge,2013-06-17 17:20:00,
2013-06-17 13:25:00,83.7,62.4,29.86,NNW,342,2.9,4.9,49,0.00,,,0.00,meteobridge,2013-06-17 17:25:00,
2013-06-17 13:30:00,83.3,62.1,29.86,South,172,2.9,4.0,49,0.00,,,0.00,meteobridge,2013-06-17 17:30:00,
2013-06-17 13:36:00,82.9,63.5,29.85,SW,226,0.0,2.9,52,0.00,,,0.00,meteobridge,2013-06-17 17:36:00,
2013-06-17 13:41:00,82.6,63.7,29.86,SSW,192,0.0,2.0,53,0.00,,,0.00,meteobridge,2013-06-17 17:41:00,
2013-06-17 13:46:00,82.0,63.1,29.85,SSW,209,0.9,4.9,53,0.00,,,0.00,meteobridge,2013-06-17 17:46:00,
2013-06-17 13:51:00,81.7,63.9,29.86,South,177,4.9,4.9,55,0.00,,,0.00,meteobridge,2013-06-17 17:51:00,
2013-06-17 13:56:00,82.4,65.7,29.85,SSW,192,0.9,2.9,57,0.00,,,0.00,meteobridge,2013-06-17 17:56:00,
2013-06-17 14:02:00,83.5,65.1,29.85,SSW,213,0.0,4.0,54,0.00,,,0.00,meteobridge,2013-06-17 18:02:00,
2013-06-17 14:07:00,83.8,65.5,29.85,SSW,196,0.0,2.0,54,0.00,,,0.00,meteobridge,2013-06-17 18:07:00,
2013-06-17 14:12:00,84.4,65.3,29.85,SSW,204,2.9,6.9,53,0.00,,,0.00,meteobridge,2013-06-17 18:12:00,
2013-06-17 14:17:00,84.0,64.6,29.85,SSW,207,4.0,8.1,52,0.00,,,0.00,meteobridge,2013-06-17 18:17:00,
2013-06-17 14:22:00,83.8,64.9,29.85,SSW,197,2.9,2.9,53,0.00,,,0.00,meteobridge,2013-06-17 18:22:00,
2013-06-17 14:28:00,84.2,64.6,29.85,South,178,0.9,6.0,52,0.00,,,0.00,meteobridge,2013-06-17 18:28:00,
2013-06-17 14:33:00,84.2,65.7,29.85,SSW,205,0.0,4.0,54,0.00,,,0.00,meteobridge,2013-06-17 18:33:00,
2013-06-17 14:38:00,84.7,66.2,29.85,SSW,194,2.0,6.0,54,0.00,,,0.00,meteobridge,2013-06-17 18:38:00,
2013-06-17 14:44:00,84.9,65.8,29.85,SSW,197,0.0,2.9,53,0.00,,,0.00,meteobridge,2013-06-17 18:44:00,
2013-06-17 14:49:00,85.5,66.4,29.84,SW,217,0.9,2.0,53,0.00,,,0.00,meteobridge,2013-06-17 18:49:00,
2013-06-17 14:54:00,85.6,65.5,29.84,SSW,192,2.9,4.0,51,0.00,,,0.00,meteobridge,2013-06-17 18:54:00,
2013-06-17 14:59:00,86.0,66.4,29.84,SSW,207,0.0,4.0,52,0.00,,,0.00,meteobridge,2013-06-17 18:59:00,
2013-06-17 15:05:00,86.4,64.4,29.83,South,190,2.9,4.9,48,0.00,,,0.00,meteobridge,2013-06-17 19:05:00,
2013-06-17 15:10:00,86.7,64.8,29.83,SSW,201,0.9,4.0,48,0.00,,,0.00,meteobridge,2013-06-17 19:10:00,
2013-06-17 15:15:00,87.1,63.9,29.83,South,179,4.0,4.9,46,0.00,,,0.00,meteobridge,2013-06-17 19:15:00,
2013-06-17 15:20:00,87.3,64.0,29.83,South,179,2.0,4.9,46,0.00,,,0.00,meteobridge,2013-06-17 19:20:00,
2013-06-17 15:26:00,87.3,63.3,29.83,SSW,197,4.9,4.9,45,0.00,,,0.00,meteobridge,2013-06-17 19:26:00,
2013-06-17 15:31:00,87.1,63.1,29.83,SSW,205,2.0,4.0,45,0.00,,,0.00,meteobridge,2013-06-17 19:31:00,
2013-06-17 15:36:00,86.7,63.5,29.83,SSW,213,0.9,4.0,46,0.00,,,0.00,meteobridge,2013-06-17 19:36:00,
2013-06-17 15:42:00,86.5,63.9,29.83,WSW,252,2.9,4.0,47,0.00,,,0.00,meteobridge,2013-06-17 19:42:00,
2013-06-17 15:47:00,86.5,62.6,29.83,SSW,193,2.9,4.9,45,0.00,,,0.00,meteobridge,2013-06-17 19:47:00,
2013-06-17 15:52:00,86.4,62.4,29.83,SSW,204,4.0,6.0,45,0.00,,,0.00,meteobridge,2013-06-17 19:52:00,
2013-06-17 15:57:00,85.8,64.4,29.83,SW,223,6.0,6.9,49,0.00,,,0.00,meteobridge,2013-06-17 19:57:00,
2013-06-17 16:03:00,85.5,63.5,29.83,South,182,2.9,4.0,48,0.00,,,0.00,meteobridge,2013-06-17 20:03:00,
2013-06-17 16:08:00,84.9,63.0,29.82,SW,215,0.9,2.0,48,0.00,,,0.00,meteobridge,2013-06-17 20:08:00,
2013-06-17 16:13:00,84.9,63.0,29.82,South,178,2.0,4.9,48,0.00,,,0.00,meteobridge,2013-06-17 20:13:00,
2013-06-17 16:19:00,84.9,63.0,29.83,NW,313,2.0,4.0,48,0.00,,,0.00,meteobridge,2013-06-17 20:19:00,
2013-06-17 16:24:00,84.7,62.2,29.83,South,171,2.0,6.9,47,0.00,,,0.00,meteobridge,2013-06-17 20:24:00,
2013-06-17 16:29:00,84.6,62.1,29.83,SSW,201,2.0,4.0,47,0.00,,,0.00,meteobridge,2013-06-17 20:29:00,
2013-06-17 16:35:00,84.4,62.6,29.83,SSW,201,2.0,6.9,48,0.00,,,0.00,meteobridge,2013-06-17 20:35:00,
2013-06-17 16:40:00,84.0,61.7,29.82,South,186,2.9,4.9,47,0.00,,,0.00,meteobridge,2013-06-17 20:40:00,
2013-06-17 16:46:00,83.8,62.1,29.83,SSW,198,2.0,2.9,48,0.00,,,0.00,meteobridge,2013-06-17 20:46:00,
2013-06-17 16:51:00,83.8,62.6,29.83,SW,219,0.0,0.9,49,0.00,,,0.00,meteobridge,2013-06-17 20:51:00,
2013-06-17 16:56:00,83.7,63.7,29.83,SSW,201,0.9,0.9,51,0.00,,,0.00,meteobridge,2013-06-17 20:56:00,
2013-06-17 17:01:00,83.5,61.7,29.82,SSW,198,0.9,4.9,48,0.00,,,0.00,meteobridge,2013-06-17 21:01:00,
2013-06-17 17:06:00,83.1,62.1,29.83,NE,34,0.9,4.0,49,0.00,,,0.00,meteobridge,2013-06-17 21:06:00,
2013-06-17 17:12:00,83.1,62.1,29.83,SSW,193,2.0,4.0,49,0.00,,,0.00,meteobridge,2013-06-17 21:12:00,
2013-06-17 17:17:00,82.9,62.4,29.83,NNW,348,2.0,4.0,50,0.00,,,0.00,meteobridge,2013-06-17 21:17:00,
2013-06-17 17:23:00,83.1,62.1,29.83,West,262,0.9,2.9,49,0.00,,,0.00,meteobridge,2013-06-17 21:23:00,
2013-06-17 17:28:00,83.1,62.1,29.83,WSW,257,0.9,2.9,49,0.00,,,0.00,meteobridge,2013-06-17 21:28:00,
2013-06-17 17:33:00,83.1,61.3,29.83,South,190,0.0,2.0,48,0.00,,,0.00,meteobridge,2013-06-17 21:33:00,
2013-06-17 17:39:00,83.1,61.3,29.83,SW,221,0.0,4.9,48,0.00,,,0.00,meteobridge,2013-06-17 21:39:00,
2013-06-17 17:44:00,82.9,61.2,29.83,SSW,202,0.0,4.0,48,0.00,,,0.00,meteobridge,2013-06-17 21:44:00,
2013-06-17 17:49:00,82.8,61.0,29.83,SSW,200,0.0,2.0,48,0.00,,,0.00,meteobridge,2013-06-17 21:49:00,
2013-06-17 17:55:00,82.8,61.7,29.83,South,184,0.0,2.0,49,0.00,,,0.00,meteobridge,2013-06-17 21:55:00,
2013-06-17 18:00:00,82.6,62.6,29.84,WSW,246,0.9,0.9,51,0.00,,,0.00,meteobridge,2013-06-17 22:00:00,
2013-06-17 18:05:00,82.0,56.7,29.85,NW,308,2.0,6.0,42,0.00,,,0.00,meteobridge,2013-06-17 22:05:00,
2013-06-17 18:10:00,81.0,55.8,29.85,NW,305,2.0,4.9,42,0.00,,,0.00,meteobridge,2013-06-17 22:10:00,
2013-06-17 18:16:00,79.9,55.9,29.84,NNW,337,2.0,4.0,44,0.00,,,0.00,meteobridge,2013-06-17 22:16:00,
2013-06-17 18:21:00,78.6,56.1,29.84,WNW,289,4.9,4.9,46,0.00,,,0.00,meteobridge,2013-06-17 22:21:00,
2013-06-17 18:26:00,77.7,56.5,29.84,NW,324,0.0,2.0,48,0.00,,,0.00,meteobridge,2013-06-17 22:26:00,
2013-06-17 18:32:00,77.4,57.2,29.84,NW,324,0.0,0.9,50,0.00,,,0.00,meteobridge,2013-06-17 22:32:00,
2013-06-17 18:37:00,77.2,58.3,29.85,SSW,207,0.9,0.9,52,0.00,,,0.00,meteobridge,2013-06-17 22:37:00,
2013-06-17 18:42:00,77.0,59.0,29.85,SSW,207,0.9,0.9,54,0.00,,,0.00,meteobridge,2013-06-17 22:42:00,
2013-06-17 18:48:00,76.6,57.7,29.85,SSW,207,0.0,0.0,52,0.00,,,0.00,meteobridge,2013-06-17 22:48:00,
2013-06-17 18:53:00,76.5,59.2,29.85,SSW,207,0.0,0.9,55,0.00,,,0.00,meteobridge,2013-06-17 22:53:00,
2013-06-17 18:58:00,76.5,58.1,29.85,SSW,204,0.9,2.9,53,0.00,,,0.00,meteobridge,2013-06-17 22:58:00,
2013-06-17 19:04:00,76.3,59.9,29.85,SSW,204,0.0,0.0,57,0.00,,,0.00,meteobridge,2013-06-17 23:04:00,
2013-06-17 19:09:00,76.1,59.7,29.85,SSW,204,0.0,0.0,57,0.00,,,0.00,meteobridge,2013-06-17 23:09:00,
2013-06-17 19:15:00,75.9,60.1,29.85,SSW,204,0.0,0.0,58,0.00,,,0.00,meteobridge,2013-06-17 23:15:00,
2013-06-17 19:20:00,75.7,59.9,29.85,SSW,204,0.0,0.0,58,0.00,,,0.00,meteobridge,2013-06-17 23:20:00,
2013-06-17 19:26:00,75.7,60.4,29.86,SSW,204,0.0,0.0,59,0.00,,,0.00,meteobridge,2013-06-17 23:26:00,
2013-06-17 19:31:00,75.6,60.3,29.86,SSW,204,0.0,0.0,59,0.00,,,0.00,meteobridge,2013-06-17 23:31:00,
2013-06-17 19:36:00,75.4,60.1,29.86,SSW,204,0.0,0.0,59,0.00,,,0.00,meteobridge,2013-06-17 23:36:00,
2013-06-17 19:42:00,75.2,59.9,29.86,SSW,204,0.0,0.0,59,0.00,,,0.00,meteobridge,2013-06-17 23:42:00,
2013-06-17 19:47:00,75.0,60.3,29.87,SSW,204,0.0,0.0,60,0.00,,,0.00,meteobridge,2013-06-17 23:47:00,
2013-06-17 19:53:00,74.8,61.3,29.88,SSW,204,0.0,0.0,63,0.00,,,0.00,meteobridge,2013-06-17 23:53:00,
2013-06-17 19:58:00,74.7,60.8,29.88,SSW,204,0.0,0.0,62,0.00,,,0.00,meteobridge,2013-06-17 23:58:00,
2013-06-17 20:04:00,74.3,60.4,29.88,SSW,204,0.0,0.0,62,0.00,,,0.00,meteobridge,2013-06-18 00:04:00,
2013-06-17 20:10:00,73.9,61.0,29.88,SSW,204,0.0,0.0,64,0.00,,,0.00,meteobridge,2013-06-18 00:10:00,
2013-06-17 20:15:00,73.8,61.7,29.88,SSW,204,0.0,0.0,66,0.00,,,0.00,meteobridge,2013-06-18 00:15:00,
2013-06-17 20:20:00,73.0,61.5,29.88,SSW,204,0.0,0.9,67,0.00,,,0.00,meteobridge,2013-06-18 00:20:00,
2013-06-17 20:25:00,72.7,61.5,29.88,SSW,204,0.0,0.0,68,0.00,,,0.00,meteobridge,2013-06-18 00:25:00,
2013-06-17 20:30:00,72.3,61.5,29.88,SSW,204,0.0,0.0,69,0.00,,,0.00,meteobridge,2013-06-18 00:30:00,
2013-06-17 20:35:00,72.1,61.3,29.88,SSW,204,0.0,0.0,69,0.00,,,0.00,meteobridge,2013-06-18 00:35:00,
2013-06-17 20:41:00,71.8,59.7,29.88,SSW,204,0.0,0.0,66,0.00,,,0.00,meteobridge,2013-06-18 00:41:00,
2013-06-17 20:46:00,71.6,60.8,29.88,SSW,204,0.0,0.0,69,0.00,,,0.00,meteobridge,2013-06-18 00:46:00,
2013-06-17 20:51:00,71.4,60.8,29.88,SSW,204,0.0,0.0,69,0.00,,,0.00,meteobridge,2013-06-18 00:51:00,
2013-06-17 20:57:00,71.2,61.0,29.88,SSW,205,0.0,0.0,70,0.00,,,0.00,meteobridge,2013-06-18 00:57:00,
2013-06-17 21:02:00,71.1,61.2,29.88,SSW,205,0.0,0.0,71,0.00,,,0.00,meteobridge,2013-06-18 01:02:00,
2013-06-17 21:07:00,70.7,61.2,29.89,SSW,204,0.0,0.0,72,0.00,,,0.00,meteobridge,2013-06-18 01:07:00,
2013-06-17 21:12:00,70.3,61.3,29.89,SSW,204,0.0,0.0,73,0.00,,,0.00,meteobridge,2013-06-18 01:12:00,
2013-06-17 21:18:00,70.2,60.6,29.89,SSW,205,0.0,0.0,72,0.00,,,0.00,meteobridge,2013-06-18 01:18:00,
2013-06-17 21:23:00,70.0,60.6,29.89,SSW,205,0.0,0.0,72,0.00,,,0.00,meteobridge,2013-06-18 01:23:00,
2013-06-17 21:28:00,69.6,61.0,29.90,SSW,205,0.0,0.0,74,0.00,,,0.00,meteobridge,2013-06-18 01:28:00,
2013-06-17 21:34:00,69.3,61.3,29.90,SSW,205,0.0,0.9,76,0.00,,,0.00,meteobridge,2013-06-18 01:34:00,
2013-06-17 21:39:00,68.7,61.2,29.91,SSW,205,0.0,0.0,77,0.00,,,0.00,meteobridge,2013-06-18 01:39:00,
2013-06-17 21:45:00,68.4,60.8,29.91,SSW,205,0.0,0.0,77,0.00,,,0.00,meteobridge,2013-06-18 01:45:00,
2013-06-17 21:51:00,68.2,60.3,29.91,SSW,205,0.0,0.0,76,0.00,,,0.00,meteobridge,2013-06-18 01:51:00,
2013-06-17 21:56:00,68.0,59.7,29.91,SSW,205,0.0,0.0,75,0.00,,,0.00,meteobridge,2013-06-18 01:56:00,
2013-06-17 22:01:00,67.8,59.9,29.92,SSW,205,0.0,0.0,76,0.00,,,0.00,meteobridge,2013-06-18 02:01:00,
2013-06-17 22:06:00,67.5,60.4,29.92,SSW,205,0.0,0.0,78,0.00,,,0.00,meteobridge,2013-06-18 02:06:00,
2013-06-17 22:12:00,67.3,60.3,29.92,SSW,205,0.0,0.0,78,0.00,,,0.00,meteobridge,2013-06-18 02:12:00,
2013-06-17 22:17:00,67.1,60.4,29.91,SSW,205,0.0,0.0,79,0.00,,,0.00,meteobridge,2013-06-18 02:17:00,
2013-06-17 22:22:00,66.9,60.3,29.91,SSW,205,0.0,0.0,79,0.00,,,0.00,meteobridge,2013-06-18 02:22:00,
2013-06-17 22:27:00,66.6,60.3,29.91,SSW,205,0.0,0.0,80,0.00,,,0.00,meteobridge,2013-06-18 02:27:00,
2013-06-17 22:33:00,66.4,60.1,29.91,SSW,205,0.0,0.0,80,0.00,,,0.00,meteobridge,2013-06-18 02:33:00,
2013-06-17 22:38:00,66.2,60.3,29.91,SSW,205,0.0,0.0,81,0.00,,,0.00,meteobridge,2013-06-18 02:38:00,
2013-06-17 22:43:00,65.8,59.9,29.91,SSW,204,0.0,0.0,81,0.00,,,0.00,meteobridge,2013-06-18 02:43:00,
2013-06-17 22:48:00,65.8,59.9,29.91,SSW,205,0.0,0.0,81,0.00,,,0.00,meteobridge,2013-06-18 02:48:00,
2013-06-17 22:54:00,65.7,59.7,29.91,SSW,205,0.0,0.0,81,0.00,,,0.00,meteobridge,2013-06-18 02:54:00,
2013-06-17 22:59:00,65.7,59.7,29.90,SSW,204,0.0,0.0,81,0.00,,,0.00,meteobridge,2013-06-18 02:59:00,
2013-06-17 23:05:00,65.5,59.5,29.90,SSW,204,0.0,0.0,81,0.00,,,0.00,meteobridge,2013-06-18 03:05:00,
2013-06-17 23:11:00,65.3,59.4,29.91,SSW,205,0.0,0.0,81,0.00,,,0.00,meteobridge,2013-06-18 03:11:00,
2013-06-17 23:16:00,65.1,59.5,29.91,SSW,205,0.0,0.0,82,0.00,,,0.00,meteobridge,2013-06-18 03:16:00,
2013-06-17 23:22:00,65.1,59.5,29.91,SSW,205,0.0,0.0,82,0.00,,,0.00,meteobridge,2013-06-18 03:22:00,
2013-06-17 23:27:00,65.1,59.5,29.91,SSW,204,0.0,0.0,82,0.00,,,0.00,meteobridge,2013-06-18 03:27:00,
2013-06-17 23:32:00,64.9,59.7,29.91,SSW,205,0.0,0.0,83,0.00,,,0.00,meteobridge,2013-06-18 03:32:00,
2013-06-17 23:38:00,64.9,59.9,29.92,SSW,205,0.0,0.0,84,0.00,,,0.00,meteobridge,2013-06-18 03:38:00,
2013-06-17 23:43:00,64.8,59.9,29.92,SSW,205,0.0,0.0,84,0.00,,,0.00,meteobridge,2013-06-18 03:43:00,
2013-06-17 23:48:00,64.8,60.1,29.92,SSW,205,0.0,0.0,85,0.00,,,0.00,meteobridge,2013-06-18 03:48:00,
2013-06-17 23:53:00,64.6,59.9,29.92,SSW,204,0.0,0.0,85,0.00,,,0.00,meteobridge,2013-06-18 03:53:00,
2013-06-17 23:59:00,64.6,59.9,29.92,SSW,204,0.0,0.0,85,0.00,,,0.00,meteobridge,2013-06-18 03:59:00,